Time;durP1;ratioP1;P1;durP2;ratioP2;P2;SDS_P1;SDS_P2;PMS_P1;PMS_P2;Temp;Humidity;BMP_temperature;BMP_pressure;BME280_temperature;BME280_humidity;BME280_pressure;Samples;Min_cycle;Max_cycle;Signal;HPM_P1;HPM_P2
2023/10/08 00:03:11;;;;;;;10.35;6.13;;;15.80;81.00;;;;;;5017177;28;20045;-75
2023/10/08 00:05:37;;;;;;;11.60;6.00;;;15.80;80.90;;;;;;5019435;28;20056;-76
2023/10/08 00:08:04;;;;;;;13.55;6.03;;;15.80;80.90;;;;;;5017852;28;20256;-76
2023/10/08 00:10:41;;;;;;;12.90;5.90;;;15.70;81.00;;;;;;5013853;28;20567;-75
2023/10/08 00:13:09;;;;;;;11.68;5.80;;;15.80;81.20;;;;;;5009583;28;20042;-80
2023/10/08 00:15:36;;;;;;;10.68;5.07;;;15.80;81.30;;;;;;5018963;28;20058;-76
2023/10/08 00:18:04;;;;;;;11.15;5.38;;;15.80;81.40;;;;;;5015090;28;20284;-76
2023/10/08 00:20:35;;;;;;;11.10;5.40;;;15.80;81.50;;;;;;5018916;28;20087;-75
2023/10/08 00:23:07;;;;;;;9.90;5.00;;;15.90;81.60;;;;;;5012640;28;20400;-76
2023/10/08 00:25:34;;;;;;;9.73;4.45;;;15.80;81.60;;;;;;5018559;28;20099;-77
2023/10/08 00:28:01;;;;;;;11.60;4.82;;;15.80;81.70;;;;;;5013740;28;20432;-74
2023/10/08 00:30:27;;;;;;;13.15;5.53;;;15.80;81.70;;;;;;5016217;28;20034;-75
2023/10/08 00:32:53;;;;;;;11.35;5.65;;;15.80;81.90;;;;;;5021378;28;20484;-77
2023/10/08 00:35:20;;;;;;;10.60;4.82;;;15.80;82.00;;;;;;5017268;28;20042;-74
2023/10/08 00:37:48;;;;;;;11.65;5.63;;;15.80;82.10;;;;;;5019621;28;20060;-75
2023/10/08 00:40:21;;;;;;;9.82;5.00;;;15.70;82.20;;;;;;5018036;28;20572;-76
2023/10/08 00:42:47;;;;;;;9.70;5.22;;;15.70;82.50;;;;;;5019153;28;20030;-75
2023/10/08 00:45:16;;;;;;;10.55;4.93;;;15.70;82.50;;;;;;5018230;28;20598;-77
2023/10/08 00:47:45;;;;;;;11.38;5.00;;;15.70;82.60;;;;;;5013941;28;20022;-76
2023/10/08 00:50:20;;;;;;;11.05;4.97;;;15.60;82.80;;;;;;5022295;28;20037;-76
2023/10/08 00:53:00;;;;;;;10.50;4.85;;;15.60;83.00;;;;;;5015598;28;20036;-75
2023/10/08 00:55:30;;;;;;;8.65;4.55;;;15.60;83.10;;;;;;5019454;28;20142;-75
2023/10/08 00:57:58;;;;;;;9.63;4.35;;;15.60;83.20;;;;;;5020389;28;20491;-77
2023/10/08 01:00:32;;;;;;;11.10;5.00;;;15.50;83.40;;;;;;5015553;28;20091;-75
2023/10/08 01:03:01;;;;;;;11.07;5.37;;;15.50;83.50;;;;;;5019053;28;20375;-75
2023/10/08 01:05:46;;;;;;;10.35;4.93;;;15.50;83.70;;;;;;5017609;28;20041;-75
2023/10/08 01:08:17;;;;;;;9.70;5.07;;;15.50;83.80;;;;;;5010996;28;20049;-76
2023/10/08 01:10:46;;;;;;;10.18;4.47;;;15.40;83.90;;;;;;5021556;28;20121;-76
2023/10/08 01:13:20;;;;;;;10.52;5.40;;;15.40;84.00;;;;;;5019145;28;20045;-74
2023/10/08 01:15:50;;;;;;;9.30;4.88;;;15.30;84.10;;;;;;5022333;28;20037;-76
2023/10/08 01:18:17;;;;;;;12.73;5.53;;;15.30;84.40;;;;;;5015778;28;20026;-74
2023/10/08 01:20:52;;;;;;;11.63;5.80;;;15.30;84.60;;;;;;5019099;28;20230;-76
2023/10/08 01:23:22;;;;;;;10.32;4.75;;;15.20;84.80;;;;;;5021077;28;20468;-75
2023/10/08 01:25:52;;;;;;;11.32;5.65;;;15.10;85.10;;;;;;5017078;28;20222;-74
2023/10/08 01:28:31;;;;;;;9.52;5.30;;;15.10;85.30;;;;;;5014903;28;20369;-74
2023/10/08 01:31:00;;;;;;;9.40;5.45;;;15.10;85.40;;;;;;5018824;28;20491;-75
2023/10/08 01:33:38;;;;;;;10.88;5.15;;;15.10;85.40;;;;;;5005789;28;20448;-75
2023/10/08 01:36:04;;;;;;;10.90;5.85;;;15.10;85.50;;;;;;5019775;28;20041;-74
2023/10/08 01:38:32;;;;;;;9.38;4.82;;;15.10;85.60;;;;;;5017841;28;20044;-74
2023/10/08 01:41:03;;;;;;;10.15;5.30;;;15.00;85.60;;;;;;5013400;28;20045;-75
2023/10/08 01:43:29;;;;;;;10.75;5.47;;;15.00;85.70;;;;;;5017636;28;20085;-76
2023/10/08 01:45:55;;;;;;;11.43;5.55;;;15.10;85.90;;;;;;5017963;28;20054;-76
2023/10/08 01:48:27;;;;;;;14.38;5.60;;;15.10;86.00;;;;;;5014973;28;20040;-75
2023/10/08 01:51:01;;;;;;;11.50;5.53;;;15.00;86.20;;;;;;5019696;28;20065;-74
2023/10/08 01:53:27;;;;;;;10.20;5.50;;;15.00;86.20;;;;;;5013244;28;20038;-74
2023/10/08 01:55:54;;;;;;;12.30;5.63;;;15.00;86.40;;;;;;5012636;28;20566;-75
2023/10/08 01:58:22;;;;;;;14.07;5.68;;;15.00;86.40;;;;;;5011475;28;20120;-74
2023/10/08 02:00:49;;;;;;;13.65;6.25;;;15.00;86.50;;;;;;5018866;28;20068;-75
2023/10/08 02:03:17;;;;;;;13.27;6.03;;;15.00;86.50;;;;;;5016011;28;20072;-74
2023/10/08 02:05:47;;;;;;;12.57;5.88;;;15.00;86.80;;;;;;5019238;28;20046;-75
2023/10/08 02:08:14;;;;;;;10.68;5.53;;;15.00;87.00;;;;;;5013139;28;20108;-78
2023/10/08 02:10:42;;;;;;;10.90;5.78;;;14.90;87.10;;;;;;5019670;28;20037;-76
2023/10/08 02:13:09;;;;;;;10.85;5.53;;;15.00;87.20;;;;;;5011361;28;20026;-75
2023/10/08 02:15:43;;;;;;;10.93;5.07;;;14.90;87.20;;;;;;5015723;28;20574;-75
2023/10/08 02:18:09;;;;;;;11.98;6.07;;;14.90;87.20;;;;;;5016773;28;20038;-76
2023/10/08 02:20:34;;;;;;;9.77;5.43;;;14.90;87.30;;;;;;5016331;28;20088;-76
2023/10/08 02:23:00;;;;;;;13.93;5.95;;;14.90;87.40;;;;;;5014051;28;20052;-75
2023/10/08 02:25:27;;;;;;;11.05;5.40;;;14.90;87.50;;;;;;5016935;28;21362;-78
2023/10/08 02:27:53;;;;;;;13.38;6.45;;;14.90;87.50;;;;;;5014464;28;20026;-76
2023/10/08 02:30:19;;;;;;;10.45;5.93;;;15.00;87.50;;;;;;5016688;28;20064;-76
2023/10/08 02:32:46;;;;;;;12.27;5.97;;;14.90;87.60;;;;;;5017495;28;20065;-78
2023/10/08 02:35:12;;;;;;;12.18;5.78;;;14.90;87.60;;;;;;5014382;28;20255;-75
2023/10/08 02:37:39;;;;;;;10.38;5.57;;;14.90;87.60;;;;;;5019655;28;20025;-76
2023/10/08 02:40:27;;;;;;;10.18;5.63;;;14.90;87.70;;;;;;5016618;28;20124;-76
2023/10/08 02:42:58;;;;;;;9.98;5.32;;;14.90;87.90;;;;;;5018753;28;20116;-75
2023/10/08 02:45:29;;;;;;;10.85;5.88;;;15.00;87.90;;;;;;5019804;28;20120;-76
2023/10/08 02:47:55;;;;;;;12.90;6.43;;;15.00;88.00;;;;;;5016504;28;20381;-75
2023/10/08 02:50:22;;;;;;;10.27;5.35;;;15.00;87.90;;;;;;5015229;28;20037;-75
2023/10/08 02:52:51;;;;;;;11.48;6.07;;;15.10;87.80;;;;;;5013602;28;20061;-75
2023/10/08 02:55:36;;;;;;;11.23;5.28;;;15.00;87.80;;;;;;5015259;28;20076;-75
2023/10/08 02:58:02;;;;;;;10.15;5.57;;;15.00;87.90;;;;;;5013174;28;20042;-77
2023/10/08 03:00:34;;;;;;;12.50;5.70;;;15.00;87.80;;;;;;5022537;28;20092;-75
2023/10/08 03:03:02;;;;;;;11.80;5.47;;;15.00;87.80;;;;;;5016089;28;20472;-76
2023/10/08 03:05:35;;;;;;;9.40;5.07;;;15.00;87.90;;;;;;5012822;28;20088;-78
2023/10/08 03:08:10;;;;;;;11.02;5.40;;;15.00;87.90;;;;;;5018423;28;20057;-76
2023/10/08 03:10:37;;;;;;;10.38;5.10;;;14.90;88.00;;;;;;5018921;28;20034;-75
2023/10/08 03:13:05;;;;;;;9.88;5.50;;;15.00;88.00;;;;;;5017097;28;20034;-75
2023/10/08 03:15:38;;;;;;;10.38;5.60;;;15.00;88.00;;;;;;5021182;28;20037;-74
2023/10/08 03:18:10;;;;;;;13.43;5.85;;;14.90;88.10;;;;;;5012823;28;20057;-74
2023/10/08 03:20:42;;;;;;;11.55;6.05;;;14.90;88.10;;;;;;5021629;28;20094;-77
2023/10/08 03:23:13;;;;;;;13.00;5.13;;;14.90;88.10;;;;;;5017917;28;20052;-75
2023/10/08 03:25:41;;;;;;;12.25;5.57;;;14.90;88.20;;;;;;5019799;28;21114;-75
2023/10/08 03:28:12;;;;;;;10.25;5.53;;;14.80;88.20;;;;;;5014680;28;20033;-75
2023/10/08 03:30:48;;;;;;;10.23;5.18;;;14.80;88.20;;;;;;5018354;28;20479;-76
2023/10/08 03:33:22;;;;;;;12.65;6.03;;;14.80;88.30;;;;;;5019438;28;20099;-77
2023/10/08 03:35:52;;;;;;;10.85;5.63;;;14.80;88.40;;;;;;5018931;28;20851;-75
2023/10/08 03:38:28;;;;;;;13.00;5.55;;;14.80;88.40;;;;;;5021015;28;20041;-75
2023/10/08 03:41:00;;;;;;;9.23;5.43;;;14.70;88.40;;;;;;5018941;28;20038;-75
2023/10/08 03:43:34;;;;;;;10.77;5.38;;;14.70;88.40;;;;;;5012109;28;20044;-75
2023/10/08 03:46:05;;;;;;;10.23;5.38;;;14.70;88.60;;;;;;5015097;28;20484;-75
2023/10/08 03:48:36;;;;;;;14.70;6.40;;;14.70;88.60;;;;;;5017571;28;20029;-75
2023/10/08 03:51:11;;;;;;;11.10;5.55;;;14.60;88.60;;;;;;5020723;28;20498;-75
2023/10/08 03:53:57;;;;;;;9.20;5.63;;;14.60;88.70;;;;;;5019628;28;20049;-75
2023/10/08 03:56:24;;;;;;;11.73;5.55;;;14.60;88.80;;;;;;5019605;28;20132;-77
2023/10/08 03:58:53;;;;;;;14.23;6.72;;;14.60;88.80;;;;;;5023810;28;20076;-75
2023/10/08 04:01:20;;;;;;;10.15;6.28;;;14.50;88.70;;;;;;5019400;28;20025;-74
2023/10/08 04:06:37;;;;;;;11.27;5.93;;;14.50;88.90;;;;;;5023005;28;20124;-76
2023/10/08 04:11:51;;;;;;;12.55;5.97;;;14.50;89.10;;;;;;5018502;28;20084;-75
2023/10/08 04:14:27;;;;;;;10.85;5.70;;;14.40;89.20;;;;;;5014931;28;20395;-74
2023/10/08 04:16:53;;;;;;;11.30;6.07;;;14.40;89.20;;;;;;5020683;28;20048;-76
2023/10/08 04:19:21;;;;;;;12.38;6.40;;;14.40;89.10;;;;;;5022500;28;20025;-75
2023/10/08 04:21:53;;;;;;;11.43;5.97;;;14.40;89.10;;;;;;5020802;28;20021;-75
2023/10/08 04:24:34;;;;;;;14.60;6.40;;;14.30;89.10;;;;;;5018594;28;20100;-72
2023/10/08 04:27:05;;;;;;;9.98;5.32;;;14.30;89.20;;;;;;5019709;28;20021;-75
2023/10/08 04:29:32;;;;;;;11.43;6.72;;;14.30;89.20;;;;;;5020624;28;20029;-76
2023/10/08 04:32:01;;;;;;;12.32;6.13;;;14.30;89.20;;;;;;5020702;28;20025;-77
2023/10/08 04:34:28;;;;;;;11.23;6.28;;;14.20;89.40;;;;;;5019969;28;20029;-75
2023/10/08 04:36:57;;;;;;;11.40;6.15;;;14.30;89.30;;;;;;5019689;28;20052;-76
2023/10/08 04:39:31;;;;;;;9.63;6.03;;;14.30;89.40;;;;;;5024430;28;20385;-77
2023/10/08 04:42:00;;;;;;;10.05;6.30;;;14.30;89.40;;;;;;5038805;28;20018;-77
2023/10/08 04:44:26;;;;;;;11.10;6.65;;;14.30;89.50;;;;;;5038018;28;20044;-74
2023/10/08 04:46:52;;;;;;;12.13;6.32;;;14.30;89.40;;;;;;5019834;28;20021;-75
2023/10/08 04:49:28;;;;;;;10.45;6.00;;;14.30;89.30;;;;;;5018610;28;20152;-76
2023/10/08 04:51:59;;;;;;;13.70;6.50;;;14.30;89.50;;;;;;5020676;28;20029;-74
2023/10/08 04:54:31;;;;;;;12.52;6.43;;;14.30;89.50;;;;;;5018328;28;20545;-75
2023/10/08 04:57:01;;;;;;;9.32;5.30;;;14.30;89.50;;;;;;5021120;28;20045;-75
2023/10/08 04:59:33;;;;;;;11.10;6.30;;;14.20;89.60;;;;;;5011488;28;20480;-77
2023/10/08 05:02:26;;;;;;;12.75;6.53;;;14.30;89.50;;;;;;5019839;28;20096;-76
2023/10/08 05:07:40;;;;;;;12.77;6.53;;;14.30;89.40;;;;;;5014739;28;20041;-78
2023/10/08 05:19:04;;;;;;;12.23;6.50;;;14.40;89.40;;;;;;5018221;28;20080;-75
2023/10/08 05:21:25;;;;;;;11.05;6.10;;;14.30;89.40;;;;;;4999613;28;20037;-76
2023/10/08 05:28:35;;;;;;;11.25;6.32;;;14.40;89.50;;;;;;5016728;28;20068;-75
2023/10/08 05:42:05;;;;;;;11.85;6.78;;;14.40;89.60;;;;;;5016168;28;20439;-76
2023/10/08 05:44:39;;;;;;;11.85;6.68;;;14.40;89.50;;;;;;5016539;28;20045;-76
2023/10/08 05:49:52;;;;;;;12.20;6.18;;;14.40;89.60;;;;;;5015784;28;20751;-76
2023/10/08 05:52:41;;;;;;;11.68;6.88;;;14.30;89.50;;;;;;5016254;28;20396;-76
2023/10/08 05:55:25;;;;;;;11.27;6.07;;;14.40;89.60;;;;;;5017777;28;20075;-77
2023/10/08 05:58:13;;;;;;;11.18;6.35;;;14.40;89.60;;;;;;5013007;28;20488;-76
2023/10/08 06:03:32;;;;;;;12.07;6.85;;;14.40;89.70;;;;;;5014294;28;20045;-75
2023/10/08 06:06:57;;;;;;;12.10;6.53;;;14.40;89.70;;;;;;5018575;28;20156;-75
2023/10/08 06:09:20;;;;;;;12.95;6.75;;;14.40;89.70;;;;;;5011451;28;20043;-76
2023/10/08 06:12:06;;;;;;;13.27;7.75;;;14.40;89.70;;;;;;5018447;28;20029;-76
2023/10/08 06:17:55;;;;;;;11.00;6.85;;;14.40;89.90;;;;;;5021583;28;20041;-76
2023/10/08 06:20:25;;;;;;;12.55;7.88;;;14.50;89.80;;;;;;5007567;28;20121;-77
2023/10/08 06:22:52;;;;;;;11.52;6.90;;;14.50;89.90;;;;;;5004898;28;20083;-76
2023/10/08 06:25:23;;;;;;;12.20;6.97;;;14.50;89.80;;;;;;5007969;28;20121;-76
2023/10/08 06:27:55;;;;;;;11.48;7.88;;;14.50;89.90;;;;;;4999596;28;20385;-76
2023/10/08 06:30:21;;;;;;;10.73;6.97;;;14.50;89.80;;;;;;5003849;28;20685;-81
2023/10/08 06:32:48;;;;;;;12.35;7.50;;;14.60;89.80;;;;;;5003623;28;20026;-75
2023/10/08 06:35:17;;;;;;;15.45;7.15;;;14.60;89.80;;;;;;4999350;28;20381;-75
2023/10/08 06:37:49;;;;;;;12.05;7.50;;;14.60;89.80;;;;;;5006115;28;20088;-74
2023/10/08 06:43:14;;;;;;;12.30;6.97;;;14.70;89.90;;;;;;4998974;28;20096;-74
2023/10/08 06:45:43;;;;;;;13.85;6.93;;;14.70;89.80;;;;;;5003327;28;20069;-73
2023/10/08 06:48:10;;;;;;;16.55;7.47;;;14.80;89.60;;;;;;4994160;28;20120;-75
2023/10/08 06:50:35;;;;;;;14.13;7.38;;;14.80;89.60;;;;;;4994165;28;20070;-73
2023/10/08 06:53:07;;;;;;;11.45;6.85;;;14.90;89.60;;;;;;4996373;28;20185;-73
2023/10/08 06:55:35;;;;;;;11.98;7.03;;;14.90;89.50;;;;;;4996296;28;20555;-72
2023/10/08 06:58:05;;;;;;;12.60;7.43;;;15.00;89.50;;;;;;4997127;28;20050;-73
2023/10/08 07:00:48;;;;;;;12.00;7.40;;;15.10;89.30;;;;;;4992190;28;20161;-73
2023/10/08 07:03:15;;;;;;;13.27;7.13;;;15.10;89.20;;;;;;4995554;28;20144;-73
2023/10/08 07:06:02;;;;;;;12.23;6.85;;;15.10;89.10;;;;;;5002054;28;20054;-74
2023/10/08 07:08:31;;;;;;;14.15;7.03;;;15.20;89.10;;;;;;4994806;28;20042;-75
2023/10/08 07:10:59;;;;;;;14.70;7.28;;;15.30;88.80;;;;;;5002809;28;20140;-74
2023/10/08 07:13:26;;;;;;;13.85;7.03;;;15.40;88.80;;;;;;4997078;28;20034;-76
2023/10/08 07:15:52;;;;;;;13.38;8.07;;;15.40;88.30;;;;;;5001860;28;20140;-74
2023/10/08 07:18:31;;;;;;;12.43;6.82;;;15.40;88.30;;;;;;5000279;28;20041;-74
2023/10/08 07:21:00;;;;;;;12.48;6.93;;;15.60;88.40;;;;;;4998833;28;20387;-74
2023/10/08 07:23:29;;;;;;;12.82;7.40;;;15.60;88.20;;;;;;5003017;28;20030;-75
2023/10/08 07:26:05;;;;;;;11.95;7.13;;;15.70;88.10;;;;;;5000886;28;20394;-75
2023/10/08 07:28:31;;;;;;;14.07;7.03;;;15.80;88.00;;;;;;4997276;28;20041;-74
2023/10/08 07:30:57;;;;;;;17.15;8.30;;;16.00;87.80;;;;;;4997881;28;20030;-75
2023/10/08 07:33:25;;;;;;;12.82;7.03;;;16.00;87.30;;;;;;4999873;28;20121;-75
2023/10/08 07:35:57;;;;;;;13.25;7.40;;;16.10;87.40;;;;;;4997178;28;20046;-74
2023/10/08 07:38:29;;;;;;;12.35;7.50;;;16.10;87.30;;;;;;4997484;28;20443;-74
2023/10/08 07:40:56;;;;;;;15.45;7.72;;;16.20;87.00;;;;;;4997487;28;21189;-72
2023/10/08 07:43:22;;;;;;;14.23;7.03;;;16.30;87.00;;;;;;5001529;28;20120;-75
2023/10/08 07:45:48;;;;;;;11.93;6.88;;;16.30;87.10;;;;;;4999474;28;20089;-74
2023/10/08 07:48:13;;;;;;;15.68;7.95;;;16.30;87.10;;;;;;4999041;28;20438;-75
2023/10/08 07:50:45;;;;;;;16.73;8.05;;;16.50;87.00;;;;;;5000277;28;20038;-72
2023/10/08 07:53:17;;;;;;;13.68;8.25;;;16.50;86.90;;;;;;5001230;28;20088;-74
2023/10/08 07:55:45;;;;;;;14.05;7.65;;;16.50;86.40;;;;;;5001333;28;20048;-73
2023/10/08 07:58:11;;;;;;;16.08;8.52;;;16.60;86.60;;;;;;4999010;28;20034;-73
2023/10/08 08:00:39;;;;;;;11.85;7.40;;;16.70;86.00;;;;;;5002055;28;20038;-74
2023/10/08 08:03:05;;;;;;;14.20;7.70;;;16.70;86.00;;;;;;5000806;28;20114;-73
2023/10/08 08:05:31;;;;;;;14.60;8.30;;;16.90;86.00;;;;;;4998262;28;20026;-75
2023/10/08 08:08:05;;;;;;;15.40;7.57;;;16.90;85.50;;;;;;5003624;28;20029;-74
2023/10/08 08:10:36;;;;;;;11.25;7.00;;;17.10;85.70;;;;;;5001459;28;20092;-74
2023/10/08 08:13:05;;;;;;;13.25;6.93;;;17.10;85.60;;;;;;5000624;28;20038;-75
2023/10/08 08:15:33;;;;;;;13.20;7.55;;;17.40;85.20;;;;;;4993960;28;20141;-72
2023/10/08 08:18:00;;;;;;;13.55;8.55;;;17.50;84.50;;;;;;5000539;28;20507;-74
2023/10/08 08:20:43;;;;;;;17.38;8.43;;;17.60;84.20;;;;;;4997605;28;20081;-73
2023/10/08 08:23:09;;;;;;;15.37;7.90;;;17.80;83.50;;;;;;4995205;28;20067;-74
2023/10/08 08:28:28;;;;;;;12.38;7.47;;;18.10;82.60;;;;;;4999957;28;20129;-74
2023/10/08 08:30:55;;;;;;;15.18;7.75;;;18.30;82.40;;;;;;4999696;28;20129;-74
2023/10/08 08:33:24;;;;;;;11.50;7.30;;;18.40;81.70;;;;;;5000163;28;20089;-76
2023/10/08 08:36:00;;;;;;;12.45;7.53;;;18.60;81.40;;;;;;5006719;28;20038;-76
2023/10/08 08:38:32;;;;;;;13.98;8.15;;;18.60;81.10;;;;;;5015576;28;20049;-73
2023/10/08 08:41:07;;;;;;;16.13;7.55;;;18.70;80.70;;;;;;5023965;28;20069;-78
2023/10/08 08:43:36;;;;;;;13.32;7.97;;;18.80;80.40;;;;;;5019191;28;20042;-76
2023/10/08 08:46:06;;;;;;;13.82;7.85;;;18.80;80.10;;;;;;5019951;28;20057;-76
2023/10/08 08:48:34;;;;;;;16.23;8.43;;;18.90;80.30;;;;;;5019636;28;20153;-77
2023/10/08 08:51:01;;;;;;;14.43;7.53;;;18.90;80.20;;;;;;5022349;28;20314;-74
2023/10/08 08:53:26;;;;;;;15.93;9.35;;;18.90;80.30;;;;;;5011084;28;20460;-75
2023/10/08 08:55:55;;;;;;;13.98;8.02;;;19.00;80.20;;;;;;4995664;28;20046;-78
2023/10/08 08:58:22;;;;;;;14.13;8.15;;;19.10;79.90;;;;;;4999607;28;20029;-74
2023/10/08 09:00:53;;;;;;;16.85;7.78;;;19.10;79.90;;;;;;4994349;28;20050;-76
2023/10/08 09:03:19;;;;;;;12.32;7.80;;;19.10;79.80;;;;;;4996156;28;20030;-78
2023/10/08 09:05:50;;;;;;;17.27;8.00;;;19.20;80.00;;;;;;5000151;28;20525;-77
2023/10/08 09:08:18;;;;;;;17.55;8.32;;;19.20;79.50;;;;;;4996734;28;20049;-73
2023/10/08 09:10:53;;;;;;;16.42;8.38;;;19.10;79.80;;;;;;4997584;28;20034;-79
2023/10/08 09:13:22;;;;;;;14.07;7.82;;;19.20;79.90;;;;;;4993818;28;20049;-81
2023/10/08 09:15:51;;;;;;;17.15;8.18;;;19.50;79.90;;;;;;5001413;28;20088;-76
2023/10/08 09:18:17;;;;;;;14.68;8.80;;;19.70;79.30;;;;;;4995762;28;20617;-76
2023/10/08 09:20:43;;;;;;;15.48;7.80;;;19.80;78.60;;;;;;4994750;28;20228;-75
2023/10/08 09:23:21;;;;;;;16.25;8.23;;;19.80;78.80;;;;;;4996252;28;20448;-75
2023/10/08 09:25:51;;;;;;;15.95;8.85;;;19.90;78.40;;;;;;4996128;28;20042;-71
2023/10/08 09:28:18;;;;;;;15.13;7.93;;;19.90;78.70;;;;;;4993916;28;20445;-76
2023/10/08 09:30:48;;;;;;;17.77;8.73;;;19.80;78.80;;;;;;4997627;28;20121;-77
2023/10/08 09:33:14;;;;;;;17.27;8.65;;;19.80;78.90;;;;;;4995949;28;20034;-79
2023/10/08 09:35:43;;;;;;;15.88;8.27;;;19.80;79.90;;;;;;4997012;28;20454;-78
2023/10/08 09:38:09;;;;;;;15.73;8.57;;;19.90;80.20;;;;;;4997909;28;20478;-76
2023/10/08 09:40:44;;;;;;;15.68;8.70;;;20.10;80.40;;;;;;4998912;28;20045;-79
2023/10/08 09:43:12;;;;;;;13.75;7.35;;;20.10;79.10;;;;;;4998121;28;20030;-78
2023/10/08 09:45:45;;;;;;;13.13;7.53;;;20.40;78.90;;;;;;4999260;28;20371;-74
2023/10/08 09:48:14;;;;;;;13.68;8.43;;;20.60;78.30;;;;;;4994291;28;20434;-76
2023/10/08 09:50:41;;;;;;;16.55;8.77;;;20.80;77.60;;;;;;4998069;28;20030;-75
2023/10/08 09:53:17;;;;;;;18.58;8.93;;;20.90;76.90;;;;;;4994484;28;20121;-75
2023/10/08 09:55:55;;;;;;;14.73;7.78;;;20.90;77.00;;;;;;4988248;28;20060;-75
2023/10/08 09:58:24;;;;;;;15.50;8.13;;;21.10;76.60;;;;;;4997309;28;20022;-76
2023/10/08 10:00:51;;;;;;;14.55;8.25;;;21.20;76.40;;;;;;4994417;28;20521;-75
2023/10/08 10:03:20;;;;;;;14.60;8.23;;;21.40;76.30;;;;;;4992382;28;20556;-78
2023/10/08 10:05:45;;;;;;;14.43;9.02;;;21.40;76.20;;;;;;4997211;28;20064;-75
2023/10/08 10:08:11;;;;;;;15.82;8.18;;;21.50;75.80;;;;;;4998370;28;20461;-76
2023/10/08 10:10:38;;;;;;;16.65;9.30;;;21.70;76.10;;;;;;4998610;28;20135;-73
2023/10/08 10:13:07;;;;;;;17.10;8.63;;;21.70;75.80;;;;;;4998758;28;20025;-74
2023/10/08 10:15:34;;;;;;;15.07;8.30;;;21.70;76.30;;;;;;4991868;28;20078;-74
2023/10/08 10:18:14;;;;;;;16.20;8.25;;;21.80;76.30;;;;;;4994856;28;20026;-75
2023/10/08 10:20:51;;;;;;;15.07;7.70;;;21.80;76.30;;;;;;4987945;28;20441;-73
2023/10/08 10:23:39;;;;;;;16.33;9.18;;;22.00;76.10;;;;;;4989179;28;20030;-73
2023/10/08 10:26:22;;;;;;;15.43;8.52;;;22.10;75.40;;;;;;4992293;28;20461;-73
2023/10/08 10:29:11;;;;;;;16.73;8.73;;;22.20;75.80;;;;;;4993936;28;20456;-79
2023/10/08 10:31:56;;;;;;;17.52;8.68;;;22.30;75.40;;;;;;5009460;28;20038;-78
2023/10/08 10:34:30;;;;;;;19.25;8.88;;;22.30;74.70;;;;;;4990365;28;20536;-77
2023/10/08 10:36:59;;;;;;;14.55;7.85;;;22.40;74.80;;;;;;4998596;28;20065;-76
2023/10/08 10:39:26;;;;;;;16.25;8.35;;;22.40;75.00;;;;;;4995699;28;20084;-77
2023/10/08 10:42:05;;;;;;;14.05;8.50;;;22.50;74.90;;;;;;4996894;28;20402;-76
2023/10/08 10:44:32;;;;;;;16.10;8.35;;;22.50;74.70;;;;;;4996877;28;20026;-76
2023/10/08 10:50:10;;;;;;;14.15;8.85;;;22.50;75.00;;;;;;4996017;28;20034;-77
2023/10/08 10:52:45;;;;;;;14.27;8.13;;;22.70;74.70;;;;;;4994710;28;20025;-78
2023/10/08 10:58:04;;;;;;;17.15;9.05;;;22.80;73.80;;;;;;4999522;28;20061;-74
2023/10/08 11:02:59;;;;;;;15.13;8.80;;;22.70;74.10;;;;;;5001274;28;20069;-76
2023/10/08 11:05:38;;;;;;;14.68;8.40;;;22.80;74.00;;;;;;4989355;28;20628;-76
2023/10/08 11:08:09;;;;;;;17.58;9.25;;;22.90;73.80;;;;;;4996122;28;20026;-77
2023/10/08 11:10:41;;;;;;;17.02;8.35;;;23.00;73.10;;;;;;5001808;28;20046;-75
2023/10/08 11:13:14;;;;;;;16.55;8.43;;;23.00;73.30;;;;;;4998753;28;20014;-77
2023/10/08 11:15:40;;;;;;;15.63;9.10;;;23.00;72.90;;;;;;5002502;28;20041;-74
2023/10/08 11:18:10;;;;;;;15.48;9.63;;;23.00;72.80;;;;;;4992836;28;20027;-75
2023/10/08 11:20:39;;;;;;;15.75;8.82;;;23.10;72.70;;;;;;4996672;28;20053;-75
2023/10/08 11:23:17;;;;;;;15.60;8.75;;;23.20;72.70;;;;;;4999271;28;20040;-76
2023/10/08 11:26:03;;;;;;;18.77;9.38;;;23.20;72.50;;;;;;4997246;28;20050;-77
2023/10/08 11:28:34;;;;;;;15.48;8.95;;;23.10;73.80;;;;;;4998553;28;20365;-75
2023/10/08 11:31:08;;;;;;;13.50;8.45;;;23.20;72.30;;;;;;4997693;28;20112;-78
2023/10/08 11:33:38;;;;;;;15.32;8.13;;;23.20;72.70;;;;;;4997501;28;20030;-77
2023/10/08 11:36:18;;;;;;;13.57;7.97;;;23.30;72.30;;;;;;4993093;28;20038;-77
2023/10/08 11:38:48;;;;;;;13.90;6.97;;;23.40;72.30;;;;;;4998617;28;20034;-78
2023/10/08 11:41:21;;;;;;;17.10;8.27;;;23.50;71.30;;;;;;4998824;28;20038;-77
2023/10/08 11:43:57;;;;;;;13.93;8.30;;;23.60;71.30;;;;;;5000421;28;20034;-78
2023/10/08 11:46:38;;;;;;;18.13;8.90;;;23.60;71.00;;;;;;4997655;28;20069;-77
2023/10/08 11:49:17;;;;;;;14.65;8.52;;;23.60;71.20;;;;;;4999062;28;20525;-75
2023/10/08 11:51:46;;;;;;;14.48;8.18;;;23.60;70.80;;;;;;4997082;28;20380;-77
2023/10/08 11:54:12;;;;;;;16.50;8.48;;;23.60;71.60;;;;;;4996236;28;20026;-75
2023/10/08 11:56:38;;;;;;;14.57;8.63;;;23.60;71.20;;;;;;4997779;28;20061;-76
2023/10/08 11:59:11;;;;;;;14.95;7.93;;;23.60;70.60;;;;;;4996813;28;20041;-75
2023/10/08 12:01:42;;;;;;;15.52;7.55;;;23.60;71.20;;;;;;4998196;28;20046;-74
2023/10/08 12:04:12;;;;;;;12.57;7.70;;;23.60;71.40;;;;;;4997277;28;20488;-77
2023/10/08 12:06:51;;;;;;;16.27;8.05;;;23.60;71.70;;;;;;4998522;28;20052;-76
2023/10/08 12:09:21;;;;;;;16.80;8.38;;;23.70;70.40;;;;;;4996005;28;20034;-75
2023/10/08 12:11:47;;;;;;;16.85;9.00;;;23.60;69.70;;;;;;4995067;28;20034;-76
2023/10/08 12:14:14;;;;;;;16.45;7.78;;;23.60;70.10;;;;;;5001128;28;20151;-75
2023/10/08 12:16:41;;;;;;;18.20;8.27;;;23.40;70.40;;;;;;4998938;28;20046;-74
2023/10/08 12:19:16;;;;;;;14.75;8.20;;;23.50;70.80;;;;;;4997712;28;20172;-73
2023/10/08 12:21:46;;;;;;;15.35;7.80;;;23.50;70.10;;;;;;4993177;28;20413;-74
2023/10/08 12:24:12;;;;;;;15.95;7.65;;;23.70;70.20;;;;;;4992252;28;20446;-74
2023/10/08 12:26:45;;;;;;;14.85;7.53;;;23.80;69.80;;;;;;5000384;28;20034;-76
2023/10/08 12:29:14;;;;;;;14.65;8.02;;;23.90;69.70;;;;;;5000261;28;20030;-76
2023/10/08 12:31:41;;;;;;;15.02;8.68;;;23.80;69.30;;;;;;4998070;28;20104;-75
2023/10/08 12:34:11;;;;;;;15.60;8.60;;;24.00;69.80;;;;;;4997182;28;20514;-75
2023/10/08 12:36:37;;;;;;;13.40;7.90;;;24.10;69.10;;;;;;4993405;28;20482;-76
2023/10/08 12:39:09;;;;;;;14.25;7.57;;;24.10;69.50;;;;;;5000084;28;20113;-76
2023/10/08 12:41:38;;;;;;;14.25;7.90;;;24.10;68.50;;;;;;4993583;28;20026;-76
2023/10/08 12:44:07;;;;;;;16.23;8.20;;;24.10;69.00;;;;;;4997187;28;20056;-77
2023/10/08 12:46:34;;;;;;;13.85;8.75;;;24.10;69.40;;;;;;4992267;28;20042;-74
2023/10/08 12:49:01;;;;;;;14.20;8.13;;;24.20;68.90;;;;;;4995702;28;20025;-74
2023/10/08 12:51:31;;;;;;;15.80;7.70;;;24.30;69.00;;;;;;4996824;28;20081;-75
2023/10/08 12:54:06;;;;;;;16.58;9.13;;;24.30;69.30;;;;;;4997247;28;20121;-75
2023/10/08 12:56:35;;;;;;;16.02;8.50;;;24.40;68.30;;;;;;4998333;28;20063;-74
2023/10/08 12:59:05;;;;;;;15.30;8.25;;;24.40;68.10;;;;;;4997966;28;20314;-75
2023/10/08 13:01:31;;;;;;;13.05;6.88;;;24.30;69.50;;;;;;4982933;28;20476;-75
2023/10/08 13:04:00;;;;;;;13.63;7.88;;;24.30;69.20;;;;;;4973991;28;20026;-74
2023/10/08 13:06:30;;;;;;;12.85;7.32;;;24.20;68.90;;;;;;4993985;28;20209;-76
2023/10/08 13:08:58;;;;;;;14.00;7.80;;;24.30;68.80;;;;;;4989443;28;20037;-74
2023/10/08 13:11:25;;;;;;;15.65;7.40;;;24.10;68.40;;;;;;4992152;28;20069;-75
2023/10/08 13:13:52;;;;;;;14.48;8.18;;;24.10;68.80;;;;;;4993727;28;20107;-74
2023/10/08 13:16:22;;;;;;;14.85;7.68;;;24.10;69.30;;;;;;4989771;28;20054;-74
2023/10/08 13:18:48;;;;;;;12.82;7.38;;;24.10;68.20;;;;;;4989406;28;20661;-73
2023/10/08 13:21:14;;;;;;;14.75;7.18;;;24.10;69.50;;;;;;4991771;28;20080;-74
2023/10/08 13:23:40;;;;;;;14.75;8.23;;;24.20;68.70;;;;;;4991644;28;20112;-75
2023/10/08 13:26:07;;;;;;;16.30;7.50;;;24.20;68.70;;;;;;4988166;28;20044;-74
2023/10/08 13:28:34;;;;;;;13.63;7.07;;;24.30;68.60;;;;;;4990416;28;20037;-75
2023/10/08 13:31:09;;;;;;;13.27;6.43;;;24.40;68.40;;;;;;4985934;28;20046;-75
2023/10/08 13:33:35;;;;;;;13.50;6.70;;;24.50;68.50;;;;;;4989476;28;20034;-76
2023/10/08 13:36:01;;;;;;;13.60;6.95;;;24.50;68.20;;;;;;4989896;28;20081;-75
2023/10/08 13:38:27;;;;;;;13.48;6.95;;;24.50;68.30;;;;;;4985622;28;20535;-76
2023/10/08 13:41:02;;;;;;;15.50;7.13;;;24.50;67.80;;;;;;4982543;28;20089;-74
2023/10/08 13:43:34;;;;;;;12.65;6.70;;;24.50;67.20;;;;;;4987552;28;20023;-75
2023/10/08 13:46:12;;;;;;;11.50;6.53;;;24.70;66.70;;;;;;4994582;28;20121;-74
2023/10/08 13:48:38;;;;;;;12.50;6.57;;;24.60;66.80;;;;;;4995438;28;20033;-75
2023/10/08 13:51:05;;;;;;;13.48;6.57;;;24.70;67.40;;;;;;4991953;28;20488;-76
2023/10/08 13:53:32;;;;;;;13.18;6.70;;;24.70;67.50;;;;;;4995816;28;20269;-73